Latest Weather Observations for Spring Bay

IDT60801

Issued at 2:02 pm EDT Tuesday 28 February 2017 (issued every 30 minutes, with the page automatically refreshed every 10 minutes)

About weather observations | Map of weather stations | Latest weather observations for TAS | Other Formats
Station Details ID: 092133 Name: SPRING BAY NTC AWS Lat: -42.55 Lon: 147.93 Height: 0.0 m
Data from the previous 72 hours. | See also: Recent months for locations in Tasmania
Date/Time
EDT
Temp
°C
App
Temp
°C
Dew
Point
°C
Rel
Hum
%
Delta-T
°C
Wind Press
QNH
hPa
Press
MSL
hPa
Rain since
9am
mm
Dir  Spd
km/h
Gust
km/h
Spd
kts
Gust
kts
28/02:00pm 24.1 - - - - - - - - - 1021.3 1021.3 -
28/01:30pm 23.6 - - - - - - - - - 1021.4 1021.4 -
28/01:00pm 23.5 - - - - - - - - - 1021.7 1021.7 -
28/12:30pm 23.6 - - - - - - - - - 1022.1 1022.1 -
28/12:00pm 22.9 - - - - - - - - - 1022.3 1022.3 -
28/11:30am 22.4 - - - - - - - - - 1022.5 1022.5 -
28/11:00am 22.1 - - - - - - - - - 1022.8 1022.8 -
28/10:30am 21.4 - - - - - - - - - 1023.0 1023.0 -
28/10:00am 20.5 - - - - - - - - - 1023.2 1023.2 -
28/09:30am 19.7 - - - - - - - - - 1023.4 1023.4 -
28/09:00am 18.7 - - - - - - - - - 1023.6 1023.6 -
28/08:30am 14.4 - - - - - - - - - 1023.8 1023.8 -
28/08:00am 13.7 - - - - - - - - - 1023.9 1023.9 -
28/07:30am 13.0 - - - - - - - - - 1023.9 1023.9 -
28/07:00am 13.1 - - - - - - - - - 1023.8 1023.8 -
28/06:30am 13.5 - - - - - - - - - 1023.7 1023.7 -
28/06:00am 13.7 - - - - - - - - - 1023.5 1023.5 -
28/05:30am 14.7 - - - - - - - - - 1023.4 1023.4 -
28/05:00am 15.8 - - - - - - - - - 1023.4 1023.4 -
28/04:30am 14.0 - - - - - - - - - 1023.6 1023.6 -
28/04:00am 14.5 - - - - - - - - - 1023.6 1023.6 -
28/03:30am 14.4 - - - - - - - - - 1023.8 1023.8 -
28/03:00am 15.1 - - - - - - - - - 1024.0 1024.0 -
28/02:30am 16.0 - - - - - - - - - 1024.2 1024.2 -
28/02:00am 16.7 - - - - - - - - - 1024.2 1024.2 -
28/01:30am 15.8 - - - - - - - - - 1024.2 1024.2 -
28/01:00am 16.2 - - - - - - - - - 1024.2 1024.2 -
28/12:30am 16.0 - - - - - - - - - 1024.3 1024.3 -
28/12:00am 16.4 - - - - - - - - - 1024.3 1024.3 -
 
Date/Time
EDT
Temp
°C
App
Temp
°C
Dew
Point
°C
Rel
Hum
%
Delta-T
°C
Wind Press
QNH
hPa
Press
MSL
hPa
Rain since
9am
mm
Dir  Spd
km/h
Gust
km/h
Spd
kts
Gust
kts
27/11:30pm 17.0 - - - - - - - - - 1024.4 1024.4 -
27/11:00pm 17.5 - - - - - - - - - 1024.4 1024.4 -
27/10:30pm 18.1 - - - - - - - - - 1024.5 1024.5 -
27/10:00pm 18.2 - - - - - - - - - 1024.5 1024.5 -
27/09:30pm 18.5 - - - - - - - - - 1024.4 1024.4 -
27/09:00pm 18.6 - - - - - - - - - 1024.3 1024.3 -
27/08:30pm 18.8 - - - - - - - - - 1024.3 1024.3 -
27/08:00pm 19.0 - - - - - - - - - 1024.1 1024.1 -
27/07:30pm 19.4 - - - - - - - - - 1023.9 1023.9 -
27/07:00pm 19.8 - - - - - - - - - 1023.8 1023.8 -
27/06:30pm 20.0 - - - - - - - - - 1023.7 1023.7 -
27/06:00pm 20.4 - - - - - - - - - 1023.7 1023.7 -
27/05:30pm 20.5 - - - - - - - - - 1023.7 1023.7 -
27/05:00pm 21.0 - - - - - - - - - 1023.8 1023.8 -
27/04:30pm 20.9 - - - - - - - - - 1023.9 1023.9 -
27/04:00pm 21.1 - - - - - - - - - 1024.1 1024.1 -
27/03:30pm 21.4 - - - - - - - - - 1024.4 1024.4 -
27/03:00pm 21.2 - - - - - - - - - 1024.5 1024.5 -
27/02:30pm 21.1 - - - - - - - - - 1024.8 1024.8 -
27/02:00pm 21.4 - - - - - - - - - 1025.0 1025.0 -
27/01:30pm 21.2 - - - - - - - - - 1025.1 1025.1 -
27/01:00pm 20.7 - - - - - - - - - 1025.3 1025.3 -
27/12:30pm 20.2 - - - - - - - - - 1025.5 1025.5 -
27/12:00pm 20.3 - - - - - - - - - 1025.8 1025.8 -
27/11:30am 19.8 - - - - - - - - - 1026.2 1026.2 -
27/11:00am 19.3 - - - - - - - - - 1026.5 1026.5 -
27/10:30am 19.0 - - - - - - - - - 1026.7 1026.7 -
27/10:00am 18.3 - - - - - - - - - 1026.9 1026.9 -
27/09:30am 17.7 - - - - - - - - - 1027.0 1027.0 -
27/09:00am 16.5 - - - - - - - - - 1027.0 1027.0 -
27/08:30am 13.5 - - - - - - - - - 1027.1 1027.1 -
27/08:00am 11.8 - - - - - - - - - 1027.0 1027.0 -
27/07:30am 11.3 - - - - - - - - - 1026.9 1026.9 -
27/07:00am 11.0 - - - - - - - - - 1026.6 1026.6 -
27/06:30am 11.5 - - - - - - - - - 1026.4 1026.4 -
27/06:00am 11.7 - - - - - - - - - 1026.2 1026.2 -
27/05:30am 12.0 - - - - - - - - - 1025.9 1025.9 -
27/05:00am 12.0 - - - - - - - - - 1025.7 1025.7 -
27/04:30am 12.4 - - - - - - - - - 1025.6 1025.6 -
27/04:00am 12.3 - - - - - - - - - 1025.7 1025.7 -
27/03:30am 12.6 - - - - - - - - - 1025.6 1025.6 -
27/03:00am 13.0 - - - - - - - - - 1025.8 1025.8 -
27/02:30am 12.8 - - - - - - - - - 1025.7 1025.7 -
27/02:00am 12.9 - - - - - - - - - 1025.8 1025.8 -
27/01:30am 13.3 - - - - - - - - - 1025.9 1025.9 -
27/01:00am 13.8 - - - - - - - - - 1025.9 1025.9 -
27/12:30am 14.1 - - - - - - - - - 1025.8 1025.8 -
27/12:00am 14.3 - - - - - - - - - 1025.9 1025.9 -
 
Date/Time
EDT
Temp
°C
App
Temp
°C
Dew
Point
°C
Rel
Hum
%
Delta-T
°C
Wind Press
QNH
hPa
Press
MSL
hPa
Rain since
9am
mm
Dir  Spd
km/h
Gust
km/h
Spd
kts
Gust
kts
26/11:30pm 14.7 - - - - - - - - - 1026.1 1026.1 -
26/11:00pm 15.4 - - - - - - - - - 1026.1 1026.1 -
26/10:30pm 16.4 - - - - - - - - - 1026.2 1026.2 -
26/10:00pm 16.7 - - - - - - - - - 1026.1 1026.1 -
26/09:30pm 16.9 - - - - - - - - - 1026.1 1026.1 -
26/09:00pm 16.9 - - - - - - - - - 1025.7 1025.7 -
26/08:30pm 17.1 - - - - - - - - - 1025.5 1025.5 -
26/08:00pm 17.3 - - - - - - - - - 1025.3 1025.3 -
26/07:30pm 17.7 - - - - - - - - - 1025.2 1025.2 -
26/07:00pm 18.1 - - - - - - - - - 1024.9 1024.9 -
26/06:30pm 18.2 - - - - - - - - - 1024.6 1024.6 -
26/06:00pm 19.1 - - - - - - - - - 1024.3 1024.3 -
26/05:30pm 19.8 - - - - - - - - - 1024.0 1024.0 -
26/05:00pm 20.3 - - - - - - - - - 1024.1 1024.1 -
26/04:30pm 19.9 - - - - - - - - - 1024.2 1024.2 -
26/04:00pm 20.1 - - - - - - - - - 1024.4 1024.4 -
26/03:30pm 20.0 - - - - - - - - - 1024.5 1024.5 -
26/03:00pm 19.9 - - - - - - - - - 1024.6 1024.6 -
26/02:30pm 19.1 - - - - - - - - - 1024.9 1024.9 -
26/02:00pm 19.1 - - - - - - - - - 1025.1 1025.1 -
26/01:30pm 18.8 - - - - - - - - - 1025.0 1025.0 -
26/01:00pm 19.2 - - - - - - - - - 1025.2 1025.2 -
26/12:30pm 19.4 - - - - - - - - - 1025.2 1025.2 -
26/12:00pm 18.3 - - - - - - - - - 1025.3 1025.3 -
26/11:30am 19.1 - - - - - - - - - 1025.4 1025.4 -
26/11:00am 18.4 - - - - - - - - - 1025.9 1025.9 -
26/10:30am 17.3 - - - - - - - - - 1026.2 1026.2 -
26/10:00am 15.7 - - - - - - - - - 1026.2 1026.2 -
26/09:30am 15.0 - - - - - - - - - 1026.1 1026.1 -
26/09:00am 14.5 - - - - - - - - - 1026.0 1026.0 -
26/08:30am 13.0 - - - - - - - - - 1025.9 1025.9 -
26/08:00am 11.7 - - - - - - - - - 1026.0 1026.0 -
26/07:30am 10.9 - - - - - - - - - 1025.8 1025.8 -
26/07:00am 10.6 - - - - - - - - - 1025.6 1025.6 -
26/06:30am 10.5 - - - - - - - - - 1025.4 1025.4 -
26/06:00am 11.1 - - - - - - - - - 1025.4 1025.4 -
26/05:30am 11.2 - - - - - - - - - 1025.0 1025.0 -
26/05:00am 11.4 - - - - - - - - - 1024.9 1024.9 -
26/04:30am 11.7 - - - - - - - - - 1025.1 1025.1 -
26/04:00am 12.1 - - - - - - - - - 1025.1 1025.1 -
26/03:30am 12.3 - - - - - - - - - 1025.3 1025.3 -
26/03:00am 12.8 - - - - - - - - - 1025.8 1025.8 -
26/02:30am 12.6 - - - - - - - - - 1025.8 1025.8 -
26/02:00am 12.7 - - - - - - - - - 1025.9 1025.9 -
26/01:30am 12.5 - - - - - - - - - 1026.1 1026.1 -

Other Formats:

Comma delimited format used in spreadsheet applications
http://www.bom.gov.au/fwo/IDT60801/IDT60801.95987.axf

JavaScript Object Notation format (JSON) in row-major order
http://www.bom.gov.au/fwo/IDT60801/IDT60801.95987.json